Time;durP1;ratioP1;P1;durP2;ratioP2;P2;SDS_P1;SDS_P2;PMS_P1;PMS_P2;Temp;Humidity;BMP_temperature;BMP_pressure;BME280_temperature;BME280_humidity;BME280_pressure;Samples;Min_cycle;Max_cycle;Signal;HPM_P1;HPM_P2
2022/10/19 00:01:18;;;;;;;29.50;10.68;;;;;;;7.55;78.48;99752.26;1631163;87;21019;-82
2022/10/19 00:03:49;;;;;;;19.95;10.45;;;;;;;7.52;79.87;99750.55;1630479;88;20991;-81
2022/10/19 00:06:24;;;;;;;21.30;10.18;;;;;;;7.50;79.87;99746.22;1630954;88;21073;-83
2022/10/19 00:08:57;;;;;;;26.37;10.48;;;;;;;7.45;80.21;99751.41;1611861;88;21018;-82
2022/10/19 00:11:26;;;;;;;21.03;9.20;;;;;;;7.29;80.59;99751.02;1630361;88;21051;-82
2022/10/19 00:13:56;;;;;;;18.75;8.38;;;;;;;7.29;80.59;99751.02;1631017;87;21469;-82
2022/10/19 00:16:27;;;;;;;19.12;8.38;;;;;;;7.24;81.34;99747.56;1629989;87;21090;-82
2022/10/19 00:19:00;;;;;;;20.10;9.23;;;;;;;7.19;81.61;99744.13;1634147;87;21028;-81
2022/10/19 00:21:28;;;;;;;;;;;;;;;7.10;81.98;99739.81;1637344;87;21034;-82
2022/10/19 00:23:55;;;;;;;16.05;8.00;;;;;;;7.08;81.28;99733.38;1628012;87;20118;-83
2022/10/19 00:26:24;;;;;;;24.40;9.30;;;;;;;7.04;80.13;99742.41;1641390;87;21016;-82
2022/10/19 00:28:54;;;;;;;17.30;9.23;;;;;;;7.02;81.32;99727.33;1638878;87;21024;-82
2022/10/19 00:31:21;;;;;;;19.23;9.58;;;;;;;6.99;81.85;99724.31;1638373;87;21064;-82
2022/10/19 00:33:49;;;;;;;20.62;9.33;;;;;;;7.03;82.75;99725.19;1639183;87;20981;-82
2022/10/19 00:36:21;;;;;;;24.77;10.70;;;;;;;7.02;80.35;99735.08;1622361;87;21046;-81
2022/10/19 00:38:50;;;;;;;29.77;11.97;;;;;;;6.93;82.48;99737.25;1637282;87;21075;-82
2022/10/19 00:41:20;;;;;;;27.02;10.88;;;;;;;6.88;82.77;99735.08;1634319;87;21044;-82
2022/10/19 00:44:04;;;;;;;29.10;12.40;;;;;;;6.84;80.59;99734.65;1642013;87;21000;-83
2022/10/19 00:46:36;;;;;;;23.67;11.63;;;;;;;6.79;80.99;99733.37;1642083;87;21337;-81
2022/10/19 00:49:09;;;;;;;24.27;10.63;;;;;;;6.81;82.05;99745.00;1642007;87;20981;-82
2022/10/19 00:51:41;;;;;;;25.17;11.63;;;;;;;6.82;82.60;99744.98;1636637;87;21064;-82
2022/10/19 00:54:11;;;;;;;22.42;10.38;;;;;;;6.82;82.82;99738.52;1642148;87;21019;-82
2022/10/19 00:56:42;;;;;;;24.90;10.93;;;;;;;6.84;82.65;99733.36;1619906;87;21040;-82
2022/10/19 00:59:12;;;;;;;23.38;11.12;;;;;;;6.85;82.72;99737.69;1638298;87;20969;-81
2022/10/19 01:01:43;;;;;;;21.62;10.60;;;;;;;6.83;82.08;99734.23;1636826;87;21043;-82
2022/10/19 01:04:12;;;;;;;25.08;9.98;;;;;;;6.80;82.16;99726.03;1642181;87;21062;-81
2022/10/19 01:06:41;;;;;;;23.60;10.48;;;;;;;6.80;82.07;99722.16;1637486;87;21565;-82
2022/10/19 01:09:09;;;;;;;25.08;10.53;;;;;;;6.78;81.61;99722.58;1641918;87;21039;-82
2022/10/19 01:11:57;;;;;;;18.75;9.85;;;;;;;6.72;81.37;99716.12;1639007;87;21041;-81
2022/10/19 01:14:57;;;;;;;20.35;9.38;;;;;;;6.73;82.18;99717.42;1639087;87;21068;-82
2022/10/19 01:17:42;;;;;;;25.45;10.60;;;;;;;6.69;81.94;99716.99;1642115;87;21126;-82
2022/10/19 01:20:44;;;;;;;14.78;8.55;;;;;;;6.63;82.20;99711.83;1642186;87;21115;-82
2022/10/19 01:23:28;;;;;;;20.08;9.75;;;;;;;6.63;81.93;99707.09;1615405;88;21540;-81
2022/10/19 01:26:37;;;;;;;16.67;8.78;;;;;;;6.59;81.37;99698.91;1632886;88;21024;-82
2022/10/19 01:29:45;;;;;;;22.82;8.68;;;;;;;6.52;81.28;99695.44;1615312;88;21052;-84
2022/10/19 01:32:18;;;;;;;18.85;9.50;;;;;;;6.40;80.85;99703.18;1628360;88;21040;-83
2022/10/19 01:35:12;;;;;;;24.23;9.90;;;;;;;6.33;81.99;99702.31;1629269;87;21036;-83
2022/10/19 01:38:00;;;;;;;18.37;8.95;;;;;;;6.32;82.19;99702.72;1656780;86;21129;-81
2022/10/19 01:40:51;;;;;;;16.77;8.70;;;;;;;6.31;81.49;99707.47;1627163;87;21040;-81
2022/10/19 01:43:51;;;;;;;16.60;9.05;;;;;;;6.25;81.95;99704.03;1630139;87;21051;-81
2022/10/19 01:46:39;;;;;;;16.93;8.43;;;;;;;6.23;82.12;99697.56;1644026;87;21630;-81
2022/10/19 01:49:12;;;;;;;15.88;8.38;;;;;;;6.26;82.29;99697.98;1634379;87;21045;-81
2022/10/19 01:51:47;;;;;;;15.25;8.60;;;;;;;6.26;82.30;99693.67;1644043;87;21501;-81
2022/10/19 01:54:18;;;;;;;22.58;9.38;;;;;;;6.26;82.77;99697.55;1644105;87;21084;-82
2022/10/19 01:56:48;;;;;;;15.93;8.20;;;;;;;6.27;82.80;99695.86;1644290;87;21040;-81
2022/10/19 01:59:19;;;;;;;18.98;8.90;;;;;;;6.23;81.79;99707.89;1644197;87;21072;-84
2022/10/19 02:01:50;;;;;;;21.12;8.50;;;;;;;6.22;82.69;99704.86;1641008;87;21599;-88
2022/10/19 02:04:21;;;;;;;14.10;8.18;;;;;;;6.24;84.23;99694.55;1643974;87;21093;-84
2022/10/19 02:06:54;;;;;;;13.88;8.20;;;;;;;6.28;84.63;99684.21;1644360;87;21622;-83
2022/10/19 02:09:22;;;;;;;17.50;7.72;;;;;;;6.30;82.79;99684.22;1643937;87;21139;-83
2022/10/19 02:11:57;;;;;;;14.83;7.95;;;;;;;6.29;82.46;99696.28;1644026;87;21040;-81
2022/10/19 02:14:29;;;;;;;18.92;8.83;;;;;;;6.31;83.37;99692.41;1644000;87;21044;-84
2022/10/19 02:17:07;;;;;;;20.80;9.33;;;;;;;6.30;82.99;99683.78;1643697;87;21115;-84
2022/10/19 02:19:35;;;;;;;27.52;9.80;;;;;;;6.30;82.64;99679.91;1643792;87;21009;-82
2022/10/19 02:22:03;;;;;;;30.75;9.03;;;;;;;6.25;83.48;99680.79;1643801;87;21635;-82
2022/10/19 02:24:31;;;;;;;24.55;9.63;;;;;;;6.25;83.13;99675.63;1643891;87;21060;-83
2022/10/19 02:27:00;;;;;;;22.10;9.15;;;;;;;6.28;82.76;99676.47;1644091;87;21088;-82
2022/10/19 02:29:28;;;;;;;21.10;9.80;;;;;;;6.24;83.74;99674.73;1643996;87;20997;-82
2022/10/19 02:31:56;;;;;;;19.40;9.15;;;;;;;6.19;85.82;99675.18;1643952;87;21088;-82
2022/10/19 02:34:23;;;;;;;25.10;9.30;;;;;;;6.18;85.34;99669.12;1643930;87;21052;-83
2022/10/19 02:36:51;;;;;;;18.92;9.00;;;;;;;6.18;84.80;99671.71;1643855;87;21052;-83
2022/10/19 02:39:19;;;;;;;18.27;9.33;;;;;;;6.15;84.99;99665.27;1643874;87;21091;-84
2022/10/19 02:42:25;;;;;;;23.77;9.60;;;;;;;6.17;84.71;99666.13;1643664;87;21048;-83
2022/10/19 02:45:01;;;;;;;24.80;9.85;;;;;;;6.13;85.21;99671.30;1643956;87;21072;-83
2022/10/19 02:47:43;;;;;;;28.50;10.72;;;;;;;6.03;85.89;99668.23;1654707;85;21030;-82
2022/10/19 02:50:11;;;;;;;24.65;10.45;;;;;;;6.04;88.34;99655.78;1643999;87;21064;-83
2022/10/19 02:52:40;;;;;;;24.92;10.30;;;;;;;6.06;90.42;99660.52;1643820;87;21112;-82
2022/10/19 02:55:08;;;;;;;23.20;9.08;;;;;;;6.11;88.37;99660.96;1643818;87;21103;-81
2022/10/19 02:57:36;;;;;;;20.90;9.63;;;;;;;6.14;86.61;99658.36;1636183;87;21084;-83
2022/10/19 03:00:06;;;;;;;18.98;8.85;;;;;;;6.06;87.81;99657.49;1617360;89;21555;-81
2022/10/19 03:02:34;;;;;;;21.60;9.15;;;;;;;6.06;87.83;99654.91;1617449;88;21012;-82
2022/10/19 03:05:04;;;;;;;23.10;9.73;;;;;;;6.04;87.25;99658.36;1617492;88;21062;-82
2022/10/19 03:07:31;;;;;;;21.00;9.78;;;;;;;6.04;88.70;99650.61;1617428;88;21011;-82
2022/10/19 03:09:59;;;;;;;29.57;10.90;;;;;;;6.05;90.27;99640.70;1617569;89;21111;-81
2022/10/19 03:12:27;;;;;;;30.45;11.30;;;;;;;6.07;89.34;99629.55;1617306;87;21602;-83
2022/10/19 03:14:54;;;;;;;24.63;9.95;;;;;;;6.11;89.33;99639.02;1617590;88;21083;-81
2022/10/19 03:17:22;;;;;;;24.67;9.38;;;;;;;6.17;88.46;99640.75;1618020;87;21032;-82
2022/10/19 03:19:50;;;;;;;24.77;9.85;;;;;;;6.18;88.62;99645.04;1617703;89;21107;-81
2022/10/19 03:22:17;;;;;;;21.55;9.43;;;;;;;6.24;88.41;99639.88;1617293;88;21067;-82
2022/10/19 03:24:45;;;;;;;20.52;9.58;;;;;;;6.28;87.33;99633.86;1614910;88;21106;-82
2022/10/19 03:27:13;;;;;;;19.42;8.83;;;;;;;6.29;87.32;99637.33;1613457;88;20996;-82
2022/10/19 03:29:40;;;;;;;20.17;9.93;;;;;;;6.30;86.50;99639.03;1613572;88;21037;-82
2022/10/19 03:32:08;;;;;;;17.35;8.45;;;;;;;6.31;87.16;99636.90;1613668;88;21051;-83
2022/10/19 03:34:35;;;;;;;18.50;9.38;;;;;;;6.33;87.52;99628.72;1614150;88;21001;-81
2022/10/19 03:37:03;;;;;;;19.27;8.73;;;;;;;6.25;88.19;99633.02;1614220;88;21075;-82
2022/10/19 03:39:31;;;;;;;21.37;9.55;;;;;;;6.21;87.29;99636.43;1614161;88;21083;-82
2022/10/19 03:41:59;;;;;;;19.48;9.20;;;;;;;6.17;86.95;99629.98;1612562;88;21007;-82
2022/10/19 03:44:26;;;;;;;17.23;8.15;;;;;;;6.14;87.71;99633.84;1596783;88;21043;-82
2022/10/19 03:46:54;;;;;;;16.52;8.55;;;;;;;6.13;88.64;99644.19;1602476;88;21035;-82
2022/10/19 03:49:21;;;;;;;21.40;9.38;;;;;;;6.10;89.01;99639.00;1602160;89;21580;-82
2022/10/19 03:51:49;;;;;;;17.27;8.38;;;;;;;6.09;89.05;99634.72;1615398;88;21000;-82
2022/10/19 03:54:17;;;;;;;17.25;8.43;;;;;;;6.11;89.91;99635.14;1611536;89;21039;-82
2022/10/19 03:56:45;;;;;;;22.02;9.25;;;;;;;6.11;90.08;99643.33;1614101;89;21047;-82
2022/10/19 03:59:14;;;;;;;19.80;9.23;;;;;;;6.16;88.40;99648.05;1614007;88;21063;-82
2022/10/19 04:01:45;;;;;;;19.92;8.45;;;;;;;6.15;88.99;99649.78;1613598;89;21098;-81
2022/10/19 04:04:17;;;;;;;23.52;8.95;;;;;;;6.20;89.08;99657.95;1605527;89;21059;-81
2022/10/19 04:06:47;;;;;;;21.90;8.93;;;;;;;6.23;90.25;99657.54;1614047;88;21082;-82
2022/10/19 04:09:18;;;;;;;16.75;7.97;;;;;;;6.23;90.39;99655.36;1636696;88;20989;-83
2022/10/19 04:11:47;;;;;;;17.77;8.80;;;;;;;6.22;89.56;99652.37;1640406;88;21110;-81
2022/10/19 04:14:17;;;;;;;24.23;9.30;;;;;;;6.26;89.49;99639.89;1656715;86;21091;-82
2022/10/19 04:16:45;;;;;;;16.65;7.95;;;;;;;6.32;91.02;99628.27;1643814;87;21424;-84
2022/10/19 04:19:15;;;;;;;19.73;9.43;;;;;;;6.37;89.78;99633.02;1624461;87;21076;-82
2022/10/19 04:21:43;;;;;;;20.97;10.32;;;;;;;6.39;88.50;99645.51;1641592;87;21063;-82
2022/10/19 04:24:15;;;;;;;17.37;8.85;;;;;;;6.48;89.88;99649.80;1643945;87;21103;-80
2022/10/19 04:26:48;;;;;;;21.25;10.13;;;;;;;6.55;89.32;99633.02;1643936;87;21048;-82
2022/10/19 04:29:18;;;;;;;20.37;9.30;;;;;;;6.56;89.64;99624.42;1641792;87;21029;-83
2022/10/19 04:31:49;;;;;;;21.85;9.00;;;;;;;6.60;89.06;99621.82;1640516;87;21060;-88
2022/10/19 04:34:18;;;;;;;17.50;8.30;;;;;;;6.63;89.14;99630.44;1643953;87;21064;-83
2022/10/19 04:36:45;;;;;;;17.00;8.23;;;;;;;6.66;88.26;99642.48;1644072;87;21064;-82
2022/10/19 04:39:14;;;;;;;16.70;8.63;;;;;;;6.66;88.55;99640.75;1643710;87;21023;-82
2022/10/19 04:41:41;;;;;;;17.15;8.40;;;;;;;6.70;88.70;99642.47;1643808;87;21012;-83
2022/10/19 04:44:09;;;;;;;15.65;8.65;;;;;;;6.74;88.60;99642.93;1621870;87;20996;-82
2022/10/19 04:46:37;;;;;;;25.50;9.80;;;;;;;6.75;88.17;99641.20;1643910;87;21129;-81
2022/10/19 04:49:05;;;;;;;24.05;10.58;;;;;;;6.82;88.49;99643.33;1643625;87;21019;-81
2022/10/19 04:51:33;;;;;;;24.02;9.30;;;;;;;6.85;88.24;99634.30;1642151;87;21029;-82
2022/10/19 04:54:03;;;;;;;17.75;8.30;;;;;;;6.90;88.19;99639.01;1638305;87;21063;-84
2022/10/19 04:56:31;;;;;;;17.32;8.13;;;;;;;6.91;87.86;99644.63;1641442;87;21024;-82
2022/10/19 04:58:59;;;;;;;18.07;8.90;;;;;;;6.92;87.68;99640.75;1637187;87;21106;-81
2022/10/19 05:01:30;;;;;;;15.98;8.60;;;;;;;6.96;87.73;99634.71;1633766;87;21056;-81
2022/10/19 05:04:00;;;;;;;23.55;10.23;;;;;;;7.01;87.79;99625.64;1643367;87;21031;-83
2022/10/19 05:06:30;;;;;;;16.65;7.87;;;;;;;7.03;87.46;99620.03;1637115;87;21103;-81
2022/10/19 05:08:59;;;;;;;20.05;8.85;;;;;;;7.04;87.30;99623.48;1639668;87;21069;-82
2022/10/19 05:11:27;;;;;;;29.20;11.85;;;;;;;7.05;87.41;99630.38;1641615;87;21088;-81
2022/10/19 05:13:56;;;;;;;26.48;12.98;;;;;;;7.05;87.84;99629.09;1643714;87;21044;-80
2022/10/19 05:16:24;;;;;;;32.23;11.43;;;;;;;7.01;87.79;99624.80;1645693;87;21121;-81
2022/10/19 05:18:58;;;;;;;24.72;10.72;;;;;;;7.02;87.26;99626.05;1632597;87;21016;-82
2022/10/19 05:21:27;;;;;;;18.23;8.85;;;;;;;7.03;86.99;99629.53;1626268;87;21070;-82
2022/10/19 05:23:56;;;;;;;14.85;6.60;;;;;;;6.97;87.64;99629.95;1628824;87;21098;-82
2022/10/19 05:26:26;;;;;;;19.23;7.72;;;;;;;6.95;86.76;99632.12;1610930;89;21110;-82
2022/10/19 05:29:03;;;;;;;15.70;6.97;;;;;;;6.83;86.67;99642.48;1627575;88;21079;-80
2022/10/19 05:31:33;;;;;;;16.48;7.53;;;;;;;6.81;87.38;99633.44;1607632;88;21079;-82
2022/10/19 05:34:02;;;;;;;19.70;8.08;;;;;;;6.83;87.82;99638.61;1620336;88;20995;-80
2022/10/19 05:36:39;;;;;;;19.05;8.68;;;;;;;6.87;88.58;99632.13;1627578;88;21059;-81
2022/10/19 05:39:13;;;;;;;21.02;8.68;;;;;;;6.93;88.69;99639.88;1618197;88;21002;-80
2022/10/19 05:41:45;;;;;;;21.97;8.90;;;;;;;7.03;89.36;99646.33;1640472;87;21103;-81
2022/10/19 05:44:20;;;;;;;18.52;8.55;;;;;;;7.12;89.17;99640.71;1626738;88;21011;-80
2022/10/19 05:46:50;;;;;;;20.55;9.33;;;;;;;7.16;88.03;99650.59;1627667;88;21563;-81
2022/10/19 05:49:20;;;;;;;20.08;9.85;;;;;;;7.21;88.02;99643.70;1622539;88;20986;-81
2022/10/19 05:51:49;;;;;;;16.50;7.97;;;;;;;7.21;87.46;99644.98;1642242;87;21077;-81
2022/10/19 05:54:18;;;;;;;17.57;8.63;;;;;;;7.20;87.94;99647.12;1639418;87;21025;-81
2022/10/19 05:56:46;;;;;;;14.00;8.40;;;;;;;7.20;87.71;99641.95;1615516;88;21153;-81
2022/10/19 05:59:18;;;;;;;17.23;8.15;;;;;;;7.23;87.81;99635.94;1620659;87;21072;-81
2022/10/19 06:01:47;;;;;;;16.57;8.18;;;;;;;7.24;87.91;99637.23;1625690;88;21016;-80
2022/10/19 06:04:15;;;;;;;17.35;8.73;;;;;;;7.26;87.97;99638.50;1639157;87;21067;-81
2022/10/19 06:06:43;;;;;;;18.35;8.48;;;;;;;7.29;87.99;99641.95;1627965;88;21054;-81
2022/10/19 06:09:11;;;;;;;20.05;9.15;;;;;;;7.33;87.24;99635.89;1607351;89;22234;-81
2022/10/19 06:11:41;;;;;;;21.12;8.78;;;;;;;7.31;87.99;99638.06;1617311;88;21124;-80
2022/10/19 06:14:13;;;;;;;19.40;9.68;;;;;;;7.36;87.39;99651.42;1627742;88;21084;-81
2022/10/19 06:16:41;;;;;;;22.22;8.55;;;;;;;7.30;87.29;99647.56;1627214;88;21085;-81
2022/10/19 06:19:09;;;;;;;21.30;8.78;;;;;;;7.34;87.74;99638.92;1626312;88;21544;-81
2022/10/19 06:21:36;;;;;;;16.67;8.05;;;;;;;7.39;87.84;99629.84;1617594;88;21063;-80
2022/10/19 06:24:05;;;;;;;19.57;8.68;;;;;;;7.43;87.47;99637.17;1622895;86;21031;-80
2022/10/19 06:26:34;;;;;;;24.02;9.88;;;;;;;7.51;88.00;99633.67;1608968;88;21550;-79
2022/10/19 06:29:03;;;;;;;19.57;9.15;;;;;;;7.60;87.92;99634.09;1621720;88;21031;-81
2022/10/19 06:31:35;;;;;;;18.80;8.88;;;;;;;7.51;86.47;99634.97;1614654;88;21094;-80
2022/10/19 06:34:03;;;;;;;17.50;8.10;;;;;;;7.37;87.22;99638.89;1615164;88;21407;-81
2022/10/19 06:36:31;;;;;;;18.50;9.15;;;;;;;7.36;86.72;99646.25;1617109;88;21032;-80
2022/10/19 06:39:00;;;;;;;19.07;9.50;;;;;;;7.37;87.48;99652.27;1613878;88;21107;-80
2022/10/19 06:41:30;;;;;;;24.07;11.22;;;;;;;7.44;87.74;99652.69;1613426;88;21012;-79
2022/10/19 06:44:00;;;;;;;24.12;11.08;;;;;;;7.46;87.20;99649.66;1612714;88;21082;-80
2022/10/19 06:46:27;;;;;;;26.45;9.83;;;;;;;7.54;88.06;99644.44;1615716;88;21081;-80
2022/10/19 06:48:59;;;;;;;19.52;9.43;;;;;;;7.65;87.54;99646.55;1608201;88;21611;-80
2022/10/19 06:51:30;;;;;;;21.93;9.45;;;;;;;7.64;87.26;99641.38;1617992;88;21115;-80
2022/10/19 06:53:58;;;;;;;17.07;9.78;;;;;;;7.66;87.11;99644.41;1611938;88;21685;-81
2022/10/19 06:56:26;;;;;;;23.67;10.18;;;;;;;7.74;87.56;99645.23;1621403;88;21051;-80
2022/10/19 06:58:54;;;;;;;20.75;9.18;;;;;;;7.83;87.96;99641.72;1619526;88;21007;-79
2022/10/19 07:01:23;;;;;;;17.92;7.58;;;;;;;7.89;86.86;99633.06;1619188;88;21050;-80
2022/10/19 07:03:52;;;;;;;20.50;9.18;;;;;;;7.85;86.40;99635.25;1615303;88;20976;-79
2022/10/19 07:06:20;;;;;;;19.62;9.10;;;;;;;7.80;86.53;99640.87;1611714;88;21084;-80
2022/10/19 07:08:47;;;;;;;17.17;8.58;;;;;;;7.82;86.70;99649.08;1626091;88;21054;-80
2022/10/19 07:11:18;;;;;;;15.32;7.55;;;;;;;7.94;86.95;99646.86;1619249;88;21075;-79
2022/10/19 07:13:46;;;;;;;16.27;8.00;;;;;;;8.02;86.86;99639.02;1617877;88;21071;-80
2022/10/19 07:16:17;;;;;;;18.62;8.70;;;;;;;8.04;86.39;99623.03;1616198;88;21076;-80
2022/10/19 07:18:45;;;;;;;21.37;9.25;;;;;;;8.12;86.68;99623.88;1621114;88;21035;-82
2022/10/19 07:21:15;;;;;;;20.27;9.25;;;;;;;8.06;86.72;99622.18;1617084;88;21083;-80
2022/10/19 07:23:46;;;;;;;22.15;8.93;;;;;;;8.18;86.76;99636.78;1607281;89;21588;-80
2022/10/19 07:26:22;;;;;;;15.08;7.80;;;;;;;8.18;86.86;99631.60;1633443;87;21147;-79
2022/10/19 07:28:50;;;;;;;15.85;6.90;;;;;;;8.16;86.44;99630.75;1648500;87;21022;-79
2022/10/19 07:31:21;;;;;;;25.30;8.58;;;;;;;8.21;85.96;99622.50;1625980;87;21012;-79
2022/10/19 07:33:59;;;;;;;20.77;8.75;;;;;;;8.15;86.88;99618.66;1630928;87;21124;-80
2022/10/19 07:36:29;;;;;;;17.77;8.10;;;;;;;8.31;87.24;99625.88;1628697;87;21020;-79
2022/10/19 07:38:57;;;;;;;17.67;7.92;;;;;;;8.42;86.63;99633.19;1631797;87;21088;-79
2022/10/19 07:41:25;;;;;;;16.93;7.87;;;;;;;8.47;86.30;99624.92;1636276;87;21000;-80
2022/10/19 07:43:53;;;;;;;14.23;7.35;;;;;;;8.46;86.44;99618.48;1632402;87;21080;-79
2022/10/19 07:46:26;;;;;;;17.67;8.20;;;;;;;8.58;86.76;99616.22;1633536;87;21073;-79
2022/10/19 07:48:54;;;;;;;18.87;8.18;;;;;;;8.70;86.49;99609.63;1633221;87;21869;-79
2022/10/19 07:51:22;;;;;;;19.95;8.88;;;;;;;8.78;86.29;99613.00;1629378;87;21041;-79
2022/10/19 07:53:50;;;;;;;19.25;8.93;;;;;;;8.88;86.31;99611.19;1624903;87;21009;-79
2022/10/19 07:56:23;;;;;;;17.15;7.90;;;;;;;8.93;85.74;99614.16;1623297;87;21036;-81
2022/10/19 07:58:53;;;;;;;17.00;8.58;;;;;;;;;;1625360;87;21052;-79
2022/10/19 08:01:25;;;;;;;16.70;8.05;;;;;;;9.05;85.54;99607.11;1618853;88;21042;-80
2022/10/19 08:03:55;;;;;;;16.65;8.13;;;;;;;9.07;85.26;99611.42;1636410;87;21064;-80
2022/10/19 08:06:23;;;;;;;20.77;8.45;;;;;;;9.12;85.48;99604.87;1633339;87;21024;-80
2022/10/19 08:08:53;;;;;;;19.57;8.83;;;;;;;9.21;85.36;99600.02;1633414;87;21039;-80
2022/10/19 08:11:25;;;;;;;17.17;8.60;;;;;;;9.26;85.25;99596.94;1638618;87;20965;-80
2022/10/19 08:13:54;;;;;;;17.55;8.20;;;;;;;9.34;85.01;99611.53;1630572;87;21668;-82
2022/10/19 08:16:43;;;;;;;16.45;8.38;;;;;;;9.43;84.81;99604.51;1632832;87;21587;-79
2022/10/19 08:19:14;;;;;;;16.32;8.20;;;;;;;9.46;84.72;99594.95;1626296;87;21091;-79
2022/10/19 08:21:44;;;;;;;19.62;9.20;;;;;;;9.56;84.61;99603.48;1630560;88;21029;-80
2022/10/19 08:24:14;;;;;;;18.65;8.38;;;;;;;9.67;84.58;99599.02;1617834;88;21329;-80
2022/10/19 08:26:42;;;;;;;25.17;10.08;;;;;;;9.75;84.51;99599.77;1620033;88;21572;-80
2022/10/19 08:29:17;;;;;;;20.30;10.32;;;;;;;9.88;84.19;99597.00;1628189;88;21008;-81
2022/10/19 08:31:46;;;;;;;28.23;10.53;;;;;;;9.98;84.31;99588.19;1625463;88;21068;-79
2022/10/19 08:34:15;;;;;;;27.95;11.08;;;;;;;10.12;83.47;99579.73;1629826;88;21508;-79
2022/10/19 08:36:43;;;;;;;26.23;11.83;;;;;;;10.16;83.22;99572.76;1629491;88;21060;-84
2022/10/19 08:39:12;;;;;;;22.95;11.60;;;;;;;10.21;83.38;99570.96;1633593;88;21040;-80
2022/10/19 08:41:58;;;;;;;28.55;11.93;;;;;;;10.32;83.14;99556.52;1629715;88;21234;-80
2022/10/19 08:45:01;;;;;;;22.87;11.00;;;;;;;10.41;83.50;99551.17;1626407;88;21079;-79
2022/10/19 08:48:01;;;;;;;22.17;9.97;;;;;;;10.59;83.17;99551.74;1630668;88;21076;-79
2022/10/19 08:50:37;;;;;;;30.77;11.60;;;;;;;10.71;82.46;99557.56;1628093;88;21000;-79
2022/10/19 08:53:18;;;;;;;32.60;11.33;;;;;;;10.88;82.41;99548.16;1636387;87;21051;-79
2022/10/19 08:56:29;;;;;;;19.00;9.45;;;;;;;11.01;82.39;99543.56;1637375;87;21048;-80
2022/10/19 08:59:41;;;;;;;17.23;6.97;;;;;;;11.24;81.60;99546.14;1652673;87;21037;-80
2022/10/19 09:02:29;;;;;;;11.83;4.95;;;;;;;11.40;77.59;99555.78;1651660;86;21644;-80
2022/10/19 09:05:03;;;;;;;12.90;5.53;;;;;;;11.52;77.54;99551.64;1624878;87;21050;-81
2022/10/19 09:07:35;;;;;;;11.53;5.62;;;;;;;11.65;78.02;99549.16;1627539;87;21718;-81
2022/10/19 09:10:17;;;;;;;11.47;5.80;;;;;;;11.80;77.14;99537.55;1641224;87;21031;-80
2022/10/19 09:12:59;;;;;;;12.10;5.78;;;;;;;11.90;76.92;99536.48;1629283;87;21100;-79
2022/10/19 09:15:46;;;;;;;12.18;6.20;;;;;;;12.10;77.19;99536.00;1637706;87;21048;-80
2022/10/19 09:18:31;;;;;;;19.87;5.97;;;;;;;12.20;76.47;99527.52;1632147;87;20980;-79
2022/10/19 09:21:10;;;;;;;12.55;6.15;;;;;;;12.36;76.53;99518.86;1633543;87;21119;-80
2022/10/19 09:24:01;;;;;;;13.93;6.05;;;;;;;12.49;75.34;99517.66;1625714;87;21051;-79
2022/10/19 09:26:33;;;;;;;13.75;5.95;;;;;;;12.69;74.44;99509.30;1635311;87;21052;-80
2022/10/19 09:29:06;;;;;;;13.03;5.50;;;;;;;12.85;74.44;99507.13;1657276;86;21077;-80
2022/10/19 09:31:38;;;;;;;13.32;6.12;;;;;;;13.03;73.46;99517.92;1638491;87;21555;-79
2022/10/19 09:34:20;;;;;;;16.85;6.10;;;;;;;13.15;72.30;99512.38;1640059;87;20996;-81
2022/10/19 09:36:57;;;;;;;10.25;5.33;;;;;;;13.32;71.87;99506.22;1637576;87;21032;-81
2022/10/19 09:39:28;;;;;;;14.07;6.05;;;;;;;13.49;72.62;99500.96;1633252;87;21083;-81
2022/10/19 09:42:29;;;;;;;9.23;5.60;;;;;;;13.67;72.67;99498.23;1628319;87;21119;-81
2022/10/19 09:44:59;;;;;;;9.45;5.85;;;;;;;13.84;71.38;99500.30;1636345;87;21544;-81
2022/10/19 09:47:39;;;;;;;12.05;5.25;;;;;;;14.09;71.33;99498.59;1659263;85;21077;-81
2022/10/19 09:50:24;;;;;;;8.63;4.55;;;;;;;14.29;70.31;99505.77;1633162;87;21055;-80
2022/10/19 09:52:54;;;;;;;7.70;4.30;;;;;;;14.55;69.72;99496.18;1630046;87;21048;-80
2022/10/19 09:55:40;;;;;;;13.38;4.53;;;;;;;14.76;68.63;99499.81;1636807;87;21066;-80
2022/10/19 09:58:19;;;;;;;10.50;4.15;;;;;;;14.94;67.58;99506.61;1641565;87;21055;-80
2022/10/19 10:00:53;;;;;;;6.97;4.05;;;;;;;15.14;68.24;99496.71;1639593;87;21079;-79
2022/10/19 10:03:39;;;;;;;12.75;4.47;;;;;;;15.30;63.01;99495.24;1659848;86;21064;-80
2022/10/19 10:06:16;;;;;;;6.72;3.62;;;;;;;15.49;66.04;99484.42;1636975;87;21035;-80
2022/10/19 10:08:48;;;;;;;8.85;3.92;;;;;;;15.76;65.26;99485.61;1631614;87;21102;-79
2022/10/19 10:11:37;;;;;;;12.85;4.67;;;;;;;15.90;62.12;99481.13;1635179;87;21020;-81
2022/10/19 10:14:21;;;;;;;11.25;4.37;;;;;;;16.06;63.70;99480.88;1642458;87;21079;-80
2022/10/19 10:16:56;;;;;;;11.80;3.98;;;;;;;16.17;63.67;99465.99;1634480;87;20996;-79
2022/10/19 10:19:30;;;;;;;8.60;4.40;;;;;;;16.30;62.59;99458.00;1625328;87;21067;-80
2022/10/19 10:21:59;;;;;;;9.53;4.92;;;;;;;16.48;64.76;99457.67;1657058;86;21096;-81
2022/10/19 10:24:30;;;;;;;10.05;4.58;;;;;;;16.71;62.83;99458.42;1646176;87;21555;-80
2022/10/19 10:27:04;;;;;;;11.33;4.92;;;;;;;16.95;62.92;99460.90;1638677;87;21059;-80
2022/10/19 10:29:38;;;;;;;10.55;4.37;;;;;;;17.10;62.30;99449.23;1626779;87;21488;-80
2022/10/19 10:32:18;;;;;;;9.73;4.45;;;;;;;17.37;62.05;99450.20;1636255;87;21150;-79
2022/10/19 10:34:57;;;;;;;13.53;5.08;;;;;;;17.37;62.17;99454.14;1625338;87;21013;-81
2022/10/19 10:37:41;;;;;;;12.35;5.28;;;;;;;17.45;61.08;99452.46;1626745;87;21512;-81
2022/10/19 10:40:27;;;;;;;13.70;5.15;;;;;;;17.48;59.63;99456.24;1627491;87;21075;-81
2022/10/19 10:43:14;;;;;;;11.43;4.58;;;;;;;17.56;58.48;99453.25;1631010;87;21103;-81
2022/10/19 10:45:47;;;;;;;9.03;4.70;;;;;;;17.60;58.59;99449.08;1621140;87;21373;-81
2022/10/19 10:48:38;;;;;;;11.05;4.97;;;;;;;17.68;60.61;99444.30;1622844;87;21143;-80
2022/10/19 10:51:22;;;;;;;12.30;4.90;;;;;;;17.70;59.11;99435.86;1631030;87;21134;-80
2022/10/19 10:53:50;;;;;;;8.05;4.58;;;;;;;17.77;59.34;99431.65;1612363;87;21106;-81
2022/10/19 10:56:28;;;;;;;13.68;4.83;;;;;;;17.81;57.78;99437.14;1623704;87;21138;-80
2022/10/19 10:59:19;;;;;;;9.50;4.70;;;;;;;17.87;60.16;99425.88;1626298;87;21570;-80
2022/10/19 11:01:55;;;;;;;9.80;4.97;;;;;;;17.92;59.53;99426.95;1628781;87;21127;-80
2022/10/19 11:04:27;;;;;;;10.13;4.22;;;;;;;18.00;59.18;99426.09;1622691;87;21063;-80
2022/10/19 11:07:00;;;;;;;14.85;4.80;;;;;;;17.98;59.46;99428.43;1633246;87;21075;-82
2022/10/19 11:09:37;;;;;;;9.50;4.33;;;;;;;17.98;59.11;99433.69;1627382;87;21033;-79
2022/10/19 11:12:10;;;;;;;9.90;5.20;;;;;;;17.93;58.10;99426.04;1625574;87;21479;-81
2022/10/19 11:14:48;;;;;;;11.78;4.80;;;;;;;17.78;57.19;99426.76;1632575;87;21012;-80
2022/10/19 11:17:26;;;;;;;8.75;4.42;;;;;;;17.81;58.00;99418.27;1627353;87;21088;-80
2022/10/19 11:19:54;;;;;;;9.80;4.75;;;;;;;17.78;58.45;99407.88;1627239;86;21095;-84
2022/10/19 11:22:54;;;;;;;13.20;5.42;;;;;;;17.77;58.84;99399.62;1625568;87;21130;-79
2022/10/19 11:25:30;;;;;;;9.53;4.85;;;;;;;17.78;59.14;99389.94;1614539;87;21058;-82
2022/10/19 11:28:03;;;;;;;15.55;5.60;;;;;;;17.85;58.92;99383.49;1636483;87;21068;-81
2022/10/19 11:30:48;;;;;;;16.17;6.22;;;;;;;17.83;57.45;99387.51;1629276;86;21059;-81
2022/10/19 11:33:33;;;;;;;18.02;5.95;;;;;;;17.84;58.62;99390.51;1639115;87;21048;-81
2022/10/19 11:36:09;;;;;;;13.30;4.97;;;;;;;17.91;58.84;99381.86;1631842;87;21107;-80
2022/10/19 11:38:48;;;;;;;12.43;4.10;;;;;;;17.92;58.36;99388.81;1630440;87;21047;-81
2022/10/19 11:41:33;;;;;;;11.80;4.75;;;;;;;17.90;57.79;99385.41;1630728;87;21603;-81
2022/10/19 11:44:22;;;;;;;12.50;5.22;;;;;;;17.81;58.58;99387.17;1632315;87;21640;-82
2022/10/19 11:47:13;;;;;;;9.95;4.50;;;;;;;17.82;58.47;99388.86;1628056;87;21120;-81
2022/10/19 11:50:30;;;;;;;11.93;5.40;;;;;;;17.76;56.68;99382.59;1636979;87;21023;-81
2022/10/19 11:53:21;;;;;;;11.08;5.47;;;;;;;17.77;58.48;99386.95;1616845;88;21606;-80
2022/10/19 11:56:27;;;;;;;18.32;5.78;;;;;;;17.77;58.25;99392.20;1632061;87;21091;-81
2022/10/19 11:59:12;;;;;;;10.95;5.20;;;;;;;17.86;58.21;99386.02;1627752;87;21532;-80
2022/10/19 12:02:19;;;;;;;10.53;5.15;;;;;;;17.86;58.65;99379.45;1619615;87;21040;-81
2022/10/19 12:04:59;;;;;;;8.90;4.08;;;;;;;17.93;57.60;99376.53;1652424;87;21026;-80